sensor_id;sensor_type;location;lat;lon;timestamp;P1;durP1;ratioP1;P2;durP2;ratioP2
20593;SDS011;10455;48.732;10.266;2023-10-09T00:02:48;11.80;;;7.60;;
20593;SDS011;10455;48.732;10.266;2023-10-09T00:07:50;11.73;;;8.20;;
20593;SDS011;10455;48.732;10.266;2023-10-09T00:12:56;9.07;;;5.90;;
20593;SDS011;10455;48.732;10.266;2023-10-09T00:17:59;8.30;;;6.03;;
20593;SDS011;10455;48.732;10.266;2023-10-09T00:23:05;13.03;;;7.17;;
20593;SDS011;10455;48.732;10.266;2023-10-09T00:28:12;9.43;;;6.60;;
20593;SDS011;10455;48.732;10.266;2023-10-09T00:33:23;11.43;;;6.33;;
20593;SDS011;10455;48.732;10.266;2023-10-09T00:38:24;10.63;;;6.57;;
20593;SDS011;10455;48.732;10.266;2023-10-09T00:43:33;11.50;;;6.90;;
20593;SDS011;10455;48.732;10.266;2023-10-09T00:48:38;10.63;;;7.07;;
20593;SDS011;10455;48.732;10.266;2023-10-09T00:53:41;10.43;;;6.67;;
20593;SDS011;10455;48.732;10.266;2023-10-09T00:58:44;13.47;;;6.83;;
20593;SDS011;10455;48.732;10.266;2023-10-09T01:03:50;19.53;;;8.03;;
20593;SDS011;10455;48.732;10.266;2023-10-09T01:08:52;14.73;;;7.87;;
20593;SDS011;10455;48.732;10.266;2023-10-09T01:14:08;16.47;;;7.90;;
20593;SDS011;10455;48.732;10.266;2023-10-09T01:19:14;15.00;;;7.80;;
20593;SDS011;10455;48.732;10.266;2023-10-09T01:24:25;13.13;;;7.33;;
20593;SDS011;10455;48.732;10.266;2023-10-09T01:29:28;11.00;;;6.90;;
20593;SDS011;10455;48.732;10.266;2023-10-09T01:34:30;19.47;;;7.80;;
20593;SDS011;10455;48.732;10.266;2023-10-09T01:39:43;13.50;;;6.27;;
20593;SDS011;10455;48.732;10.266;2023-10-09T01:44:45;14.17;;;6.50;;
20593;SDS011;10455;48.732;10.266;2023-10-09T01:49:48;16.13;;;6.80;;
20593;SDS011;10455;48.732;10.266;2023-10-09T01:54:54;13.90;;;5.80;;
20593;SDS011;10455;48.732;10.266;2023-10-09T02:00:02;13.70;;;6.43;;
20593;SDS011;10455;48.732;10.266;2023-10-09T02:05:06;9.93;;;5.77;;
20593;SDS011;10455;48.732;10.266;2023-10-09T02:10:26;11.60;;;6.27;;
20593;SDS011;10455;48.732;10.266;2023-10-09T02:15:31;9.07;;;6.17;;
20593;SDS011;10455;48.732;10.266;2023-10-09T02:21:04;11.70;;;6.43;;
20593;SDS011;10455;48.732;10.266;2023-10-09T02:26:15;13.13;;;6.67;;
20593;SDS011;10455;48.732;10.266;2023-10-09T02:31:19;10.67;;;6.07;;
20593;SDS011;10455;48.732;10.266;2023-10-09T02:36:23;12.40;;;6.03;;
20593;SDS011;10455;48.732;10.266;2023-10-09T02:41:29;10.53;;;5.83;;
20593;SDS011;10455;48.732;10.266;2023-10-09T02:46:34;11.67;;;6.53;;
20593;SDS011;10455;48.732;10.266;2023-10-09T02:51:36;10.20;;;5.67;;
20593;SDS011;10455;48.732;10.266;2023-10-09T02:56:43;12.00;;;6.17;;
20593;SDS011;10455;48.732;10.266;2023-10-09T03:01:48;9.87;;;5.83;;
20593;SDS011;10455;48.732;10.266;2023-10-09T03:06:50;10.00;;;6.23;;
20593;SDS011;10455;48.732;10.266;2023-10-09T03:11:55;13.80;;;5.57;;
20593;SDS011;10455;48.732;10.266;2023-10-09T03:17:00;15.17;;;6.10;;
20593;SDS011;10455;48.732;10.266;2023-10-09T03:22:02;14.63;;;6.37;;
20593;SDS011;10455;48.732;10.266;2023-10-09T03:27:06;17.83;;;5.97;;
20593;SDS011;10455;48.732;10.266;2023-10-09T03:32:08;16.10;;;5.87;;
20593;SDS011;10455;48.732;10.266;2023-10-09T03:37:11;14.37;;;6.20;;
20593;SDS011;10455;48.732;10.266;2023-10-09T03:42:23;18.93;;;6.47;;
20593;SDS011;10455;48.732;10.266;2023-10-09T03:47:25;17.97;;;5.90;;
20593;SDS011;10455;48.732;10.266;2023-10-09T03:52:27;16.77;;;5.93;;
20593;SDS011;10455;48.732;10.266;2023-10-09T03:57:32;15.98;;;5.82;;
20593;SDS011;10455;48.732;10.266;2023-10-09T04:02:34;20.27;;;5.95;;
20593;SDS011;10455;48.732;10.266;2023-10-09T04:07:36;16.35;;;5.00;;
20593;SDS011;10455;48.732;10.266;2023-10-09T04:12:39;13.88;;;5.95;;
20593;SDS011;10455;48.732;10.266;2023-10-09T04:17:42;16.23;;;4.82;;
20593;SDS011;10455;48.732;10.266;2023-10-09T04:22:44;13.88;;;5.28;;
20593;SDS011;10455;48.732;10.266;2023-10-09T04:27:53;18.95;;;6.22;;
20593;SDS011;10455;48.732;10.266;2023-10-09T04:33:03;15.40;;;5.35;;
20593;SDS011;10455;48.732;10.266;2023-10-09T04:38:11;20.10;;;6.13;;
20593;SDS011;10455;48.732;10.266;2023-10-09T04:43:14;17.80;;;6.18;;
20593;SDS011;10455;48.732;10.266;2023-10-09T04:48:21;17.70;;;5.07;;
20593;SDS011;10455;48.732;10.266;2023-10-09T04:53:37;13.13;;;5.27;;
20593;SDS011;10455;48.732;10.266;2023-10-09T04:58:49;19.03;;;5.70;;
20593;SDS011;10455;48.732;10.266;2023-10-09T05:04:03;17.67;;;5.53;;
20593;SDS011;10455;48.732;10.266;2023-10-09T05:09:15;20.87;;;6.20;;
20593;SDS011;10455;48.732;10.266;2023-10-09T05:14:22;14.33;;;5.53;;
20593;SDS011;10455;48.732;10.266;2023-10-09T05:19:38;13.60;;;4.70;;
20593;SDS011;10455;48.732;10.266;2023-10-09T05:24:55;15.77;;;5.27;;
20593;SDS011;10455;48.732;10.266;2023-10-09T05:29:59;19.57;;;4.97;;
20593;SDS011;10455;48.732;10.266;2023-10-09T05:35:13;14.73;;;5.57;;
20593;SDS011;10455;48.732;10.266;2023-10-09T05:40:16;15.43;;;5.07;;
20593;SDS011;10455;48.732;10.266;2023-10-09T05:45:32;13.02;;;5.15;;
20593;SDS011;10455;48.732;10.266;2023-10-09T05:50:51;13.52;;;5.18;;
20593;SDS011;10455;48.732;10.266;2023-10-09T05:56:13;13.02;;;5.00;;
20593;SDS011;10455;48.732;10.266;2023-10-09T06:01:33;17.63;;;5.47;;
20593;SDS011;10455;48.732;10.266;2023-10-09T06:07:01;19.10;;;4.93;;
20593;SDS011;10455;48.732;10.266;2023-10-09T06:12:12;12.25;;;5.30;;
20593;SDS011;10455;48.732;10.266;2023-10-09T06:17:51;16.90;;;5.18;;
20593;SDS011;10455;48.732;10.266;2023-10-09T06:23:00;16.08;;;5.18;;
20593;SDS011;10455;48.732;10.266;2023-10-09T06:28:15;15.43;;;5.15;;
20593;SDS011;10455;48.732;10.266;2023-10-09T06:33:20;20.38;;;6.13;;
20593;SDS011;10455;48.732;10.266;2023-10-09T06:38:29;16.50;;;5.18;;
20593;SDS011;10455;48.732;10.266;2023-10-09T06:43:52;16.75;;;5.63;;
20593;SDS011;10455;48.732;10.266;2023-10-09T06:48:55;15.43;;;5.57;;
20593;SDS011;10455;48.732;10.266;2023-10-09T06:53:57;17.48;;;5.05;;
20593;SDS011;10455;48.732;10.266;2023-10-09T06:59:03;13.35;;;5.43;;
20593;SDS011;10455;48.732;10.266;2023-10-09T07:04:17;18.95;;;5.32;;
20593;SDS011;10455;48.732;10.266;2023-10-09T07:09:42;22.23;;;5.85;;
20593;SDS011;10455;48.732;10.266;2023-10-09T07:15:04;23.05;;;5.68;;
20593;SDS011;10455;48.732;10.266;2023-10-09T07:20:22;16.95;;;5.05;;
20593;SDS011;10455;48.732;10.266;2023-10-09T07:25:37;21.08;;;5.28;;
20593;SDS011;10455;48.732;10.266;2023-10-09T07:30:42;18.67;;;5.80;;
20593;SDS011;10455;48.732;10.266;2023-10-09T07:35:47;20.77;;;5.63;;
20593;SDS011;10455;48.732;10.266;2023-10-09T07:40:57;19.35;;;5.95;;
20593;SDS011;10455;48.732;10.266;2023-10-09T07:46:20;16.05;;;4.97;;
20593;SDS011;10455;48.732;10.266;2023-10-09T07:51:37;22.42;;;5.28;;
20593;SDS011;10455;48.732;10.266;2023-10-09T07:56:43;21.95;;;5.47;;
20593;SDS011;10455;48.732;10.266;2023-10-09T08:01:46;16.63;;;4.93;;
20593;SDS011;10455;48.732;10.266;2023-10-09T08:06:54;20.77;;;4.95;;
20593;SDS011;10455;48.732;10.266;2023-10-09T08:11:58;29.20;;;5.25;;
20593;SDS011;10455;48.732;10.266;2023-10-09T08:17:35;17.60;;;4.82;;
20593;SDS011;10455;48.732;10.266;2023-10-09T08:22:38;14.40;;;5.00;;
20593;SDS011;10455;48.732;10.266;2023-10-09T08:27:52;21.20;;;4.97;;
20593;SDS011;10455;48.732;10.266;2023-10-09T08:32:58;15.52;;;4.88;;
20593;SDS011;10455;48.732;10.266;2023-10-09T08:38:05;15.88;;;4.65;;
20593;SDS011;10455;48.732;10.266;2023-10-09T08:43:09;21.35;;;5.47;;
20593;SDS011;10455;48.732;10.266;2023-10-09T08:48:14;18.98;;;5.30;;
20593;SDS011;10455;48.732;10.266;2023-10-09T08:53:19;18.85;;;4.70;;
20593;SDS011;10455;48.732;10.266;2023-10-09T08:58:23;14.45;;;5.30;;
20593;SDS011;10455;48.732;10.266;2023-10-09T09:03:37;16.92;;;4.70;;
20593;SDS011;10455;48.732;10.266;2023-10-09T09:08:42;22.58;;;5.35;;
20593;SDS011;10455;48.732;10.266;2023-10-09T09:13:46;19.95;;;7.88;;
20593;SDS011;10455;48.732;10.266;2023-10-09T09:18:53;21.10;;;5.60;;
20593;SDS011;10455;48.732;10.266;2023-10-09T09:24:07;24.75;;;6.38;;
20593;SDS011;10455;48.732;10.266;2023-10-09T09:29:38;19.40;;;5.70;;
20593;SDS011;10455;48.732;10.266;2023-10-09T09:34:43;22.15;;;5.53;;
20593;SDS011;10455;48.732;10.266;2023-10-09T09:39:49;22.13;;;5.53;;
20593;SDS011;10455;48.732;10.266;2023-10-09T09:44:53;18.67;;;5.13;;
20593;SDS011;10455;48.732;10.266;2023-10-09T09:49:57;22.90;;;5.78;;
20593;SDS011;10455;48.732;10.266;2023-10-09T09:55:13;20.08;;;5.10;;
20593;SDS011;10455;48.732;10.266;2023-10-09T10:00:18;24.17;;;6.18;;
20593;SDS011;10455;48.732;10.266;2023-10-09T10:05:30;19.38;;;5.95;;
20593;SDS011;10455;48.732;10.266;2023-10-09T10:10:37;20.45;;;5.60;;
20593;SDS011;10455;48.732;10.266;2023-10-09T10:15:57;21.10;;;4.97;;
20593;SDS011;10455;48.732;10.266;2023-10-09T10:21:14;22.00;;;5.38;;
20593;SDS011;10455;48.732;10.266;2023-10-09T10:26:19;16.98;;;5.07;;
20593;SDS011;10455;48.732;10.266;2023-10-09T10:36:52;18.95;;;5.28;;
20593;SDS011;10455;48.732;10.266;2023-10-09T10:42:01;19.63;;;5.28;;
20593;SDS011;10455;48.732;10.266;2023-10-09T10:47:06;16.80;;;5.35;;
20593;SDS011;10455;48.732;10.266;2023-10-09T10:52:22;17.85;;;5.43;;
20593;SDS011;10455;48.732;10.266;2023-10-09T10:57:37;15.70;;;5.03;;
20593;SDS011;10455;48.732;10.266;2023-10-09T11:02:53;17.52;;;5.75;;
20593;SDS011;10455;48.732;10.266;2023-10-09T11:07:57;14.40;;;4.88;;
20593;SDS011;10455;48.732;10.266;2023-10-09T11:13:02;15.32;;;4.78;;
20593;SDS011;10455;48.732;10.266;2023-10-09T11:18:27;15.02;;;5.03;;
20593;SDS011;10455;48.732;10.266;2023-10-09T11:23:29;18.45;;;4.82;;
20593;SDS011;10455;48.732;10.266;2023-10-09T11:28:40;16.77;;;4.80;;
20593;SDS011;10455;48.732;10.266;2023-10-09T11:33:49;14.38;;;4.63;;
20593;SDS011;10455;48.732;10.266;2023-10-09T11:38:52;18.05;;;6.60;;
20593;SDS011;10455;48.732;10.266;2023-10-09T11:44:14;12.65;;;4.65;;
20593;SDS011;10455;48.732;10.266;2023-10-09T11:49:24;11.77;;;5.20;;
20593;SDS011;10455;48.732;10.266;2023-10-09T11:54:44;16.50;;;5.35;;
20593;SDS011;10455;48.732;10.266;2023-10-09T11:59:47;16.02;;;4.20;;
20593;SDS011;10455;48.732;10.266;2023-10-09T12:04:52;10.18;;;4.38;;
20593;SDS011;10455;48.732;10.266;2023-10-09T12:09:55;14.35;;;4.70;;
20593;SDS011;10455;48.732;10.266;2023-10-09T12:14:59;16.83;;;7.55;;
20593;SDS011;10455;48.732;10.266;2023-10-09T12:20:05;15.15;;;5.70;;
20593;SDS011;10455;48.732;10.266;2023-10-09T12:25:14;21.85;;;5.60;;
20593;SDS011;10455;48.732;10.266;2023-10-09T12:30:21;17.88;;;5.57;;
20593;SDS011;10455;48.732;10.266;2023-10-09T12:35:26;19.00;;;5.00;;
20593;SDS011;10455;48.732;10.266;2023-10-09T12:40:33;20.20;;;5.47;;
20593;SDS011;10455;48.732;10.266;2023-10-09T12:45:37;29.73;;;9.50;;
20593;SDS011;10455;48.732;10.266;2023-10-09T12:50:39;60.42;;;27.95;;
20593;SDS011;10455;48.732;10.266;2023-10-09T12:55:44;36.45;;;17.88;;
20593;SDS011;10455;48.732;10.266;2023-10-09T13:00:47;65.53;;;31.75;;
20593;SDS011;10455;48.732;10.266;2023-10-09T13:05:50;35.47;;;13.70;;
20593;SDS011;10455;48.732;10.266;2023-10-09T13:10:56;25.27;;;9.18;;
20593;SDS011;10455;48.732;10.266;2023-10-09T13:16:02;12.80;;;6.47;;
20593;SDS011;10455;48.732;10.266;2023-10-09T13:21:06;18.00;;;5.97;;
20593;SDS011;10455;48.732;10.266;2023-10-09T13:26:08;13.73;;;5.50;;
20593;SDS011;10455;48.732;10.266;2023-10-09T13:31:20;13.85;;;6.07;;
20593;SDS011;10455;48.732;10.266;2023-10-09T13:36:25;13.32;;;5.85;;
20593;SDS011;10455;48.732;10.266;2023-10-09T13:41:29;10.43;;;5.32;;
20593;SDS011;10455;48.732;10.266;2023-10-09T13:46:32;12.68;;;6.00;;
20593;SDS011;10455;48.732;10.266;2023-10-09T13:51:41;17.23;;;6.85;;
20593;SDS011;10455;48.732;10.266;2023-10-09T13:56:44;13.95;;;6.35;;
20593;SDS011;10455;48.732;10.266;2023-10-09T14:01:48;15.70;;;6.35;;
20593;SDS011;10455;48.732;10.266;2023-10-09T14:06:50;12.50;;;5.70;;
20593;SDS011;10455;48.732;10.266;2023-10-09T14:11:57;16.23;;;6.32;;
20593;SDS011;10455;48.732;10.266;2023-10-09T14:17:07;15.93;;;6.50;;
20593;SDS011;10455;48.732;10.266;2023-10-09T14:22:13;11.38;;;6.30;;
20593;SDS011;10455;48.732;10.266;2023-10-09T14:27:16;17.33;;;6.00;;
20593;SDS011;10455;48.732;10.266;2023-10-09T14:32:19;17.25;;;6.32;;
20593;SDS011;10455;48.732;10.266;2023-10-09T14:37:26;16.38;;;5.97;;
20593;SDS011;10455;48.732;10.266;2023-10-09T14:42:29;13.95;;;6.22;;
20593;SDS011;10455;48.732;10.266;2023-10-09T14:47:32;34.00;;;14.07;;
20593;SDS011;10455;48.732;10.266;2023-10-09T14:52:34;29.20;;;15.02;;
20593;SDS011;10455;48.732;10.266;2023-10-09T14:57:38;16.25;;;10.20;;
20593;SDS011;10455;48.732;10.266;2023-10-09T15:02:42;22.95;;;13.98;;
20593;SDS011;10455;48.732;10.266;2023-10-09T15:07:43;17.58;;;8.18;;
20593;SDS011;10455;48.732;10.266;2023-10-09T15:12:45;29.77;;;8.77;;
20593;SDS011;10455;48.732;10.266;2023-10-09T15:17:51;14.80;;;6.20;;
20593;SDS011;10455;48.732;10.266;2023-10-09T15:22:53;14.55;;;5.90;;
20593;SDS011;10455;48.732;10.266;2023-10-09T15:27:55;17.05;;;5.78;;
20593;SDS011;10455;48.732;10.266;2023-10-09T15:32:58;18.45;;;6.65;;
20593;SDS011;10455;48.732;10.266;2023-10-09T15:38:00;15.80;;;5.95;;
20593;SDS011;10455;48.732;10.266;2023-10-09T15:43:03;16.73;;;6.03;;
20593;SDS011;10455;48.732;10.266;2023-10-09T15:48:07;16.63;;;5.60;;
20593;SDS011;10455;48.732;10.266;2023-10-09T15:53:08;18.17;;;6.95;;
20593;SDS011;10455;48.732;10.266;2023-10-09T15:58:10;17.58;;;5.60;;
20593;SDS011;10455;48.732;10.266;2023-10-09T16:03:14;19.35;;;6.35;;
20593;SDS011;10455;48.732;10.266;2023-10-09T16:08:16;18.08;;;6.47;;
20593;SDS011;10455;48.732;10.266;2023-10-09T16:13:19;15.13;;;5.90;;
20593;SDS011;10455;48.732;10.266;2023-10-09T16:18:23;18.85;;;5.85;;
20593;SDS011;10455;48.732;10.266;2023-10-09T16:23:25;20.35;;;6.18;;
20593;SDS011;10455;48.732;10.266;2023-10-09T16:28:27;17.35;;;5.70;;
20593;SDS011;10455;48.732;10.266;2023-10-09T16:33:30;19.75;;;6.50;;
20593;SDS011;10455;48.732;10.266;2023-10-09T16:38:34;18.90;;;8.25;;
20593;SDS011;10455;48.732;10.266;2023-10-09T16:43:39;28.25;;;8.65;;
20593;SDS011;10455;48.732;10.266;2023-10-09T16:48:43;46.50;;;15.70;;
20593;SDS011;10455;48.732;10.266;2023-10-09T16:53:47;54.97;;;18.60;;
20593;SDS011;10455;48.732;10.266;2023-10-09T16:58:52;64.82;;;20.58;;
20593;SDS011;10455;48.732;10.266;2023-10-09T17:03:56;90.60;;;31.10;;
20593;SDS011;10455;48.732;10.266;2023-10-09T17:08:58;57.38;;;20.17;;
20593;SDS011;10455;48.732;10.266;2023-10-09T17:14:00;38.60;;;14.43;;
20593;SDS011;10455;48.732;10.266;2023-10-09T17:19:06;31.50;;;10.98;;
20593;SDS011;10455;48.732;10.266;2023-10-09T17:24:09;44.60;;;17.50;;
20593;SDS011;10455;48.732;10.266;2023-10-09T17:29:12;34.13;;;9.68;;
20593;SDS011;10455;48.732;10.266;2023-10-09T17:34:18;54.50;;;21.38;;
20593;SDS011;10455;48.732;10.266;2023-10-09T17:39:23;26.80;;;9.63;;
20593;SDS011;10455;48.732;10.266;2023-10-09T17:44:26;29.23;;;13.68;;
20593;SDS011;10455;48.732;10.266;2023-10-09T17:49:29;26.77;;;12.00;;
20593;SDS011;10455;48.732;10.266;2023-10-09T17:54:31;15.43;;;7.00;;
20593;SDS011;10455;48.732;10.266;2023-10-09T17:59:34;29.17;;;14.18;;
20593;SDS011;10455;48.732;10.266;2023-10-09T18:04:39;24.75;;;12.30;;
20593;SDS011;10455;48.732;10.266;2023-10-09T18:09:41;16.73;;;8.02;;
20593;SDS011;10455;48.732;10.266;2023-10-09T18:14:44;15.75;;;8.82;;
20593;SDS011;10455;48.732;10.266;2023-10-09T18:19:47;14.30;;;6.85;;
20593;SDS011;10455;48.732;10.266;2023-10-09T18:24:51;14.80;;;7.10;;
20593;SDS011;10455;48.732;10.266;2023-10-09T18:29:53;15.98;;;8.60;;
20593;SDS011;10455;48.732;10.266;2023-10-09T18:34:59;20.42;;;7.13;;
20593;SDS011;10455;48.732;10.266;2023-10-09T18:40:01;13.38;;;8.75;;
20593;SDS011;10455;48.732;10.266;2023-10-09T18:45:06;13.30;;;6.60;;
20593;SDS011;10455;48.732;10.266;2023-10-09T18:50:10;21.67;;;7.95;;
20593;SDS011;10455;48.732;10.266;2023-10-09T18:55:12;15.68;;;7.13;;
20593;SDS011;10455;48.732;10.266;2023-10-09T19:00:14;14.82;;;6.40;;
20593;SDS011;10455;48.732;10.266;2023-10-09T19:05:22;19.08;;;7.70;;
20593;SDS011;10455;48.732;10.266;2023-10-09T19:10:25;13.38;;;6.63;;
20593;SDS011;10455;48.732;10.266;2023-10-09T19:15:27;18.25;;;7.78;;
20593;SDS011;10455;48.732;10.266;2023-10-09T19:20:32;15.48;;;6.47;;
20593;SDS011;10455;48.732;10.266;2023-10-09T19:25:34;16.17;;;7.05;;
20593;SDS011;10455;48.732;10.266;2023-10-09T19:30:36;19.13;;;7.32;;
20593;SDS011;10455;48.732;10.266;2023-10-09T19:35:40;19.90;;;6.85;;
20593;SDS011;10455;48.732;10.266;2023-10-09T19:40:44;19.38;;;6.57;;
20593;SDS011;10455;48.732;10.266;2023-10-09T19:45:52;18.77;;;6.60;;
20593;SDS011;10455;48.732;10.266;2023-10-09T19:51:05;16.13;;;6.28;;
20593;SDS011;10455;48.732;10.266;2023-10-09T19:56:07;17.50;;;6.68;;
20593;SDS011;10455;48.732;10.266;2023-10-09T20:01:10;19.85;;;6.53;;
20593;SDS011;10455;48.732;10.266;2023-10-09T20:06:14;22.05;;;7.20;;
20593;SDS011;10455;48.732;10.266;2023-10-09T20:11:17;15.98;;;6.32;;
20593;SDS011;10455;48.732;10.266;2023-10-09T20:16:22;17.40;;;5.68;;
20593;SDS011;10455;48.732;10.266;2023-10-09T20:21:27;14.43;;;6.03;;
20593;SDS011;10455;48.732;10.266;2023-10-09T20:26:30;13.20;;;5.63;;
20593;SDS011;10455;48.732;10.266;2023-10-09T20:31:32;16.88;;;6.28;;
20593;SDS011;10455;48.732;10.266;2023-10-09T20:36:35;14.18;;;9.20;;
20593;SDS011;10455;48.732;10.266;2023-10-09T20:41:41;13.55;;;5.75;;
20593;SDS011;10455;48.732;10.266;2023-10-09T20:46:42;14.75;;;5.68;;
20593;SDS011;10455;48.732;10.266;2023-10-09T20:51:49;16.70;;;6.25;;
20593;SDS011;10455;48.732;10.266;2023-10-09T20:56:52;13.20;;;5.00;;
20593;SDS011;10455;48.732;10.266;2023-10-09T21:01:54;11.02;;;5.28;;
20593;SDS011;10455;48.732;10.266;2023-10-09T21:06:57;18.23;;;5.45;;
20593;SDS011;10455;48.732;10.266;2023-10-09T21:11:59;13.98;;;5.38;;
20593;SDS011;10455;48.732;10.266;2023-10-09T21:17:01;15.25;;;5.90;;
20593;SDS011;10455;48.732;10.266;2023-10-09T21:22:04;14.25;;;5.45;;
20593;SDS011;10455;48.732;10.266;2023-10-09T21:27:06;11.85;;;5.35;;
20593;SDS011;10455;48.732;10.266;2023-10-09T21:32:08;16.42;;;5.88;;
20593;SDS011;10455;48.732;10.266;2023-10-09T21:37:14;17.60;;;5.53;;
20593;SDS011;10455;48.732;10.266;2023-10-09T21:42:19;13.00;;;4.97;;
20593;SDS011;10455;48.732;10.266;2023-10-09T21:47:21;15.75;;;5.30;;
20593;SDS011;10455;48.732;10.266;2023-10-09T21:52:24;14.60;;;5.72;;
20593;SDS011;10455;48.732;10.266;2023-10-09T21:57:26;12.35;;;5.20;;
20593;SDS011;10455;48.732;10.266;2023-10-09T22:02:28;16.05;;;5.20;;
20593;SDS011;10455;48.732;10.266;2023-10-09T22:07:33;14.02;;;5.63;;
20593;SDS011;10455;48.732;10.266;2023-10-09T22:12:36;13.95;;;5.57;;
20593;SDS011;10455;48.732;10.266;2023-10-09T22:17:39;14.50;;;5.63;;
20593;SDS011;10455;48.732;10.266;2023-10-09T22:22:44;14.75;;;5.70;;
20593;SDS011;10455;48.732;10.266;2023-10-09T22:27:47;15.45;;;5.28;;
20593;SDS011;10455;48.732;10.266;2023-10-09T22:32:51;12.00;;;5.90;;
20593;SDS011;10455;48.732;10.266;2023-10-09T22:37:54;14.88;;;5.50;;
20593;SDS011;10455;48.732;10.266;2023-10-09T22:42:58;12.60;;;5.50;;
20593;SDS011;10455;48.732;10.266;2023-10-09T22:48:03;14.85;;;5.68;;
20593;SDS011;10455;48.732;10.266;2023-10-09T22:53:07;11.77;;;5.57;;
20593;SDS011;10455;48.732;10.266;2023-10-09T22:58:12;12.50;;;5.88;;
20593;SDS011;10455;48.732;10.266;2023-10-09T23:03:17;12.13;;;5.65;;
20593;SDS011;10455;48.732;10.266;2023-10-09T23:08:31;11.65;;;5.18;;
20593;SDS011;10455;48.732;10.266;2023-10-09T23:13:33;14.77;;;5.65;;
20593;SDS011;10455;48.732;10.266;2023-10-09T23:18:35;8.98;;;5.28;;
20593;SDS011;10455;48.732;10.266;2023-10-09T23:23:45;11.60;;;5.45;;
20593;SDS011;10455;48.732;10.266;2023-10-09T23:28:50;9.68;;;5.25;;
20593;SDS011;10455;48.732;10.266;2023-10-09T23:33:55;12.40;;;5.95;;
20593;SDS011;10455;48.732;10.266;2023-10-09T23:38:58;10.60;;;5.57;;
20593;SDS011;10455;48.732;10.266;2023-10-09T23:44:13;11.15;;;5.38;;
20593;SDS011;10455;48.732;10.266;2023-10-09T23:49:20;13.50;;;5.47;;
20593;SDS011;10455;48.732;10.266;2023-10-09T23:54:25;12.18;;;5.40;;
20593;SDS011;10455;48.732;10.266;2023-10-09T23:59:27;13.05;;;5.82;;
